sensor_id;sensor_type;location;lat;lon;timestamp;temperature;humidity
70068;DHT22;57425;51.616;6.680;2022-11-20T00:01:25;3.80;65.10
70068;DHT22;57425;51.616;6.680;2022-11-20T00:03:53;3.70;65.00
70068;DHT22;57425;51.616;6.680;2022-11-20T00:06:19;3.70;65.00
70068;DHT22;57425;51.616;6.680;2022-11-20T00:08:45;3.70;65.00
70068;DHT22;57425;51.616;6.680;2022-11-20T00:11:31;3.70;65.00
70068;DHT22;57425;51.616;6.680;2022-11-20T00:13:59;3.70;64.60
70068;DHT22;57425;51.616;6.680;2022-11-20T00:16:27;3.70;65.00
70068;DHT22;57425;51.616;6.680;2022-11-20T00:18:53;3.70;65.00
70068;DHT22;57425;51.616;6.680;2022-11-20T00:21:21;3.70;65.00
70068;DHT22;57425;51.616;6.680;2022-11-20T00:23:49;3.60;65.00
70068;DHT22;57425;51.616;6.680;2022-11-20T00:26:17;3.60;65.00
70068;DHT22;57425;51.616;6.680;2022-11-20T00:28:44;3.60;65.00
70068;DHT22;57425;51.616;6.680;2022-11-20T00:31:14;3.60;65.00
70068;DHT22;57425;51.616;6.680;2022-11-20T00:33:41;3.60;65.00
70068;DHT22;57425;51.616;6.680;2022-11-20T00:36:12;3.60;65.10
70068;DHT22;57425;51.616;6.680;2022-11-20T00:38:38;3.60;65.00
70068;DHT22;57425;51.616;6.680;2022-11-20T00:41:09;3.60;65.10
70068;DHT22;57425;51.616;6.680;2022-11-20T00:43:37;3.60;65.10
70068;DHT22;57425;51.616;6.680;2022-11-20T00:46:12;3.60;65.10
70068;DHT22;57425;51.616;6.680;2022-11-20T00:48:39;3.60;65.00
70068;DHT22;57425;51.616;6.680;2022-11-20T00:51:04;3.50;65.10
70068;DHT22;57425;51.616;6.680;2022-11-20T00:53:30;3.50;65.20
70068;DHT22;57425;51.616;6.680;2022-11-20T00:56:01;3.50;65.10
70068;DHT22;57425;51.616;6.680;2022-11-20T00:58:35;3.50;65.00
70068;DHT22;57425;51.616;6.680;2022-11-20T01:01:12;3.50;64.90
70068;DHT22;57425;51.616;6.680;2022-11-20T01:03:41;3.50;65.10
70068;DHT22;57425;51.616;6.680;2022-11-20T01:06:11;3.50;65.20
70068;DHT22;57425;51.616;6.680;2022-11-20T01:08:37;3.50;65.30
70068;DHT22;57425;51.616;6.680;2022-11-20T01:11:05;3.40;65.20
70068;DHT22;57425;51.616;6.680;2022-11-20T01:13:32;3.40;65.20
70068;DHT22;57425;51.616;6.680;2022-11-20T01:16:15;3.40;65.30
70068;DHT22;57425;51.616;6.680;2022-11-20T01:18:43;3.40;65.20
70068;DHT22;57425;51.616;6.680;2022-11-20T01:21:11;3.40;65.40
70068;DHT22;57425;51.616;6.680;2022-11-20T01:23:40;3.40;65.30
70068;DHT22;57425;51.616;6.680;2022-11-20T01:26:11;3.40;65.30
70068;DHT22;57425;51.616;6.680;2022-11-20T01:28:38;3.40;65.30
70068;DHT22;57425;51.616;6.680;2022-11-20T01:33:41;3.40;65.10
70068;DHT22;57425;51.616;6.680;2022-11-20T01:36:08;3.30;65.30
70068;DHT22;57425;51.616;6.680;2022-11-20T01:38:33;3.30;65.20
70068;DHT22;57425;51.616;6.680;2022-11-20T01:40:59;3.30;65.10
70068;DHT22;57425;51.616;6.680;2022-11-20T01:43:25;3.30;65.00
70068;DHT22;57425;51.616;6.680;2022-11-20T01:48:51;3.30;65.00
70068;DHT22;57425;51.616;6.680;2022-11-20T01:51:38;3.30;65.00
70068;DHT22;57425;51.616;6.680;2022-11-20T01:54:09;3.30;64.90
70068;DHT22;57425;51.616;6.680;2022-11-20T01:56:40;3.30;65.00
70068;DHT22;57425;51.616;6.680;2022-11-20T01:59:08;3.30;64.90
70068;DHT22;57425;51.616;6.680;2022-11-20T02:01:35;3.30;65.00
70068;DHT22;57425;51.616;6.680;2022-11-20T02:04:01;3.20;65.00
70068;DHT22;57425;51.616;6.680;2022-11-20T02:06:40;3.20;65.00
70068;DHT22;57425;51.616;6.680;2022-11-20T02:09:08;3.20;64.80
70068;DHT22;57425;51.616;6.680;2022-11-20T02:11:33;3.20;65.00
70068;DHT22;57425;51.616;6.680;2022-11-20T02:13:59;3.20;65.00
70068;DHT22;57425;51.616;6.680;2022-11-20T02:16:28;3.20;65.00
70068;DHT22;57425;51.616;6.680;2022-11-20T02:18:56;3.20;64.90
70068;DHT22;57425;51.616;6.680;2022-11-20T02:26:32;3.20;64.80
70068;DHT22;57425;51.616;6.680;2022-11-20T02:29:00;3.20;65.00
70068;DHT22;57425;51.616;6.680;2022-11-20T02:31:27;3.10;64.90
70068;DHT22;57425;51.616;6.680;2022-11-20T02:33:56;3.10;64.80
70068;DHT22;57425;51.616;6.680;2022-11-20T02:36:24;3.10;64.70
70068;DHT22;57425;51.616;6.680;2022-11-20T02:38:50;3.10;64.80
70068;DHT22;57425;51.616;6.680;2022-11-20T02:41:16;3.10;64.80
70068;DHT22;57425;51.616;6.680;2022-11-20T02:43:42;3.10;64.80
70068;DHT22;57425;51.616;6.680;2022-11-20T02:46:08;3.10;64.80
70068;DHT22;57425;51.616;6.680;2022-11-20T02:48:34;3.00;64.80
70068;DHT22;57425;51.616;6.680;2022-11-20T02:51:00;3.10;64.90
70068;DHT22;57425;51.616;6.680;2022-11-20T02:53:25;3.00;64.90
70068;DHT22;57425;51.616;6.680;2022-11-20T02:55:51;3.00;65.00
70068;DHT22;57425;51.616;6.680;2022-11-20T02:58:17;3.00;65.00
70068;DHT22;57425;51.616;6.680;2022-11-20T03:00:42;3.00;65.10
70068;DHT22;57425;51.616;6.680;2022-11-20T03:03:08;3.00;65.00
70068;DHT22;57425;51.616;6.680;2022-11-20T03:05:34;3.00;65.70
70068;DHT22;57425;51.616;6.680;2022-11-20T03:08:00;3.00;65.20
70068;DHT22;57425;51.616;6.680;2022-11-20T03:10:25;3.00;65.30
70068;DHT22;57425;51.616;6.680;2022-11-20T03:12:54;3.00;65.40
70068;DHT22;57425;51.616;6.680;2022-11-20T03:15:22;3.00;65.40
70068;DHT22;57425;51.616;6.680;2022-11-20T03:17:47;2.90;65.50
70068;DHT22;57425;51.616;6.680;2022-11-20T03:20:13;2.90;65.60
70068;DHT22;57425;51.616;6.680;2022-11-20T03:22:39;3.00;65.70
70068;DHT22;57425;51.616;6.680;2022-11-20T03:25:05;3.00;65.70
70068;DHT22;57425;51.616;6.680;2022-11-20T03:27:34;3.00;65.80
70068;DHT22;57425;51.616;6.680;2022-11-20T03:30:00;2.90;65.70
70068;DHT22;57425;51.616;6.680;2022-11-20T03:32:26;2.90;65.80
70068;DHT22;57425;51.616;6.680;2022-11-20T03:34:51;2.90;65.80
70068;DHT22;57425;51.616;6.680;2022-11-20T03:37:17;2.90;65.80
70068;DHT22;57425;51.616;6.680;2022-11-20T03:39:43;2.90;65.90
70068;DHT22;57425;51.616;6.680;2022-11-20T03:42:08;2.90;65.90
70068;DHT22;57425;51.616;6.680;2022-11-20T03:44:54;2.90;65.90
70068;DHT22;57425;51.616;6.680;2022-11-20T03:47:20;2.90;66.00
70068;DHT22;57425;51.616;6.680;2022-11-20T03:49:46;2.90;66.10
70068;DHT22;57425;51.616;6.680;2022-11-20T03:52:11;2.90;66.60
70068;DHT22;57425;51.616;6.680;2022-11-20T03:54:37;2.90;66.20
70068;DHT22;57425;51.616;6.680;2022-11-20T03:57:02;2.90;66.30
70068;DHT22;57425;51.616;6.680;2022-11-20T03:59:28;2.90;66.30
70068;DHT22;57425;51.616;6.680;2022-11-20T04:01:54;2.90;66.50
70068;DHT22;57425;51.616;6.680;2022-11-20T04:04:19;2.90;66.40
70068;DHT22;57425;51.616;6.680;2022-11-20T04:06:45;2.80;66.50
70068;DHT22;57425;51.616;6.680;2022-11-20T04:09:10;2.80;66.50
70068;DHT22;57425;51.616;6.680;2022-11-20T04:11:39;2.80;66.60
70068;DHT22;57425;51.616;6.680;2022-11-20T04:14:06;2.90;66.80
70068;DHT22;57425;51.616;6.680;2022-11-20T04:16:34;2.80;66.70
70068;DHT22;57425;51.616;6.680;2022-11-20T04:19:02;2.80;66.80
70068;DHT22;57425;51.616;6.680;2022-11-20T04:21:28;2.90;67.00
70068;DHT22;57425;51.616;6.680;2022-11-20T04:23:55;2.80;67.00
70068;DHT22;57425;51.616;6.680;2022-11-20T04:26:22;2.80;67.10
70068;DHT22;57425;51.616;6.680;2022-11-20T04:28:48;2.80;67.20
70068;DHT22;57425;51.616;6.680;2022-11-20T04:31:20;2.80;67.20
70068;DHT22;57425;51.616;6.680;2022-11-20T04:33:46;2.80;67.20
70068;DHT22;57425;51.616;6.680;2022-11-20T04:36:15;2.80;67.20
70068;DHT22;57425;51.616;6.680;2022-11-20T04:38:41;2.80;67.20
70068;DHT22;57425;51.616;6.680;2022-11-20T04:41:09;2.80;67.20
70068;DHT22;57425;51.616;6.680;2022-11-20T04:43:37;2.80;67.20
70068;DHT22;57425;51.616;6.680;2022-11-20T04:46:03;2.80;67.30
70068;DHT22;57425;51.616;6.680;2022-11-20T04:48:29;2.80;67.30
70068;DHT22;57425;51.616;6.680;2022-11-20T04:50:55;2.80;67.30
70068;DHT22;57425;51.616;6.680;2022-11-20T04:53:21;2.80;67.40
70068;DHT22;57425;51.616;6.680;2022-11-20T04:55:47;2.80;67.40
70068;DHT22;57425;51.616;6.680;2022-11-20T04:58:13;2.80;67.40
70068;DHT22;57425;51.616;6.680;2022-11-20T05:00:39;2.80;67.50
70068;DHT22;57425;51.616;6.680;2022-11-20T05:03:05;2.80;67.40
70068;DHT22;57425;51.616;6.680;2022-11-20T05:05:33;2.80;67.50
70068;DHT22;57425;51.616;6.680;2022-11-20T05:08:00;2.80;67.50
70068;DHT22;57425;51.616;6.680;2022-11-20T05:10:27;2.80;68.10
70068;DHT22;57425;51.616;6.680;2022-11-20T05:12:53;2.70;67.40
70068;DHT22;57425;51.616;6.680;2022-11-20T05:15:19;2.80;67.50
70068;DHT22;57425;51.616;6.680;2022-11-20T05:17:51;2.80;67.50
70068;DHT22;57425;51.616;6.680;2022-11-20T05:20:17;2.80;67.50
70068;DHT22;57425;51.616;6.680;2022-11-20T05:22:43;2.70;67.40
70068;DHT22;57425;51.616;6.680;2022-11-20T05:25:10;2.70;67.50
70068;DHT22;57425;51.616;6.680;2022-11-20T05:27:36;2.80;67.50
70068;DHT22;57425;51.616;6.680;2022-11-20T05:30:03;2.70;67.50
70068;DHT22;57425;51.616;6.680;2022-11-20T05:32:29;2.70;67.50
70068;DHT22;57425;51.616;6.680;2022-11-20T05:34:54;2.80;67.60
70068;DHT22;57425;51.616;6.680;2022-11-20T05:37:20;2.70;67.50
70068;DHT22;57425;51.616;6.680;2022-11-20T05:39:45;2.70;67.50
70068;DHT22;57425;51.616;6.680;2022-11-20T05:42:11;2.70;67.60
70068;DHT22;57425;51.616;6.680;2022-11-20T05:44:59;2.70;67.60
70068;DHT22;57425;51.616;6.680;2022-11-20T05:47:27;2.70;67.60
70068;DHT22;57425;51.616;6.680;2022-11-20T05:49:53;2.70;67.60
70068;DHT22;57425;51.616;6.680;2022-11-20T05:52:19;2.70;67.60
70068;DHT22;57425;51.616;6.680;2022-11-20T05:54:44;2.70;67.70
70068;DHT22;57425;51.616;6.680;2022-11-20T05:57:10;2.70;67.70
70068;DHT22;57425;51.616;6.680;2022-11-20T05:59:36;2.70;68.30
70068;DHT22;57425;51.616;6.680;2022-11-20T06:02:01;2.70;67.80
70068;DHT22;57425;51.616;6.680;2022-11-20T06:04:27;2.70;67.80
70068;DHT22;57425;51.616;6.680;2022-11-20T06:06:52;2.70;67.80
70068;DHT22;57425;51.616;6.680;2022-11-20T06:09:18;2.70;67.80
70068;DHT22;57425;51.616;6.680;2022-11-20T06:11:43;2.70;67.80
70068;DHT22;57425;51.616;6.680;2022-11-20T06:14:10;2.70;67.80
70068;DHT22;57425;51.616;6.680;2022-11-20T06:16:36;2.70;67.80
70068;DHT22;57425;51.616;6.680;2022-11-20T06:19:01;2.70;67.90
70068;DHT22;57425;51.616;6.680;2022-11-20T06:21:27;2.70;67.90
70068;DHT22;57425;51.616;6.680;2022-11-20T06:23:53;2.70;67.90
70068;DHT22;57425;51.616;6.680;2022-11-20T06:26:24;2.70;67.90
70068;DHT22;57425;51.616;6.680;2022-11-20T06:28:51;2.70;67.90
70068;DHT22;57425;51.616;6.680;2022-11-20T06:31:19;2.70;67.90
70068;DHT22;57425;51.616;6.680;2022-11-20T06:33:45;2.70;67.90
70068;DHT22;57425;51.616;6.680;2022-11-20T06:36:13;2.70;67.90
70068;DHT22;57425;51.616;6.680;2022-11-20T06:38:39;2.60;67.80
70068;DHT22;57425;51.616;6.680;2022-11-20T06:41:06;2.70;67.80
70068;DHT22;57425;51.616;6.680;2022-11-20T06:43:32;2.80;67.80
70068;DHT22;57425;51.616;6.680;2022-11-20T06:45:59;2.60;67.70
70068;DHT22;57425;51.616;6.680;2022-11-20T06:48:26;2.80;67.80
70068;DHT22;57425;51.616;6.680;2022-11-20T06:50:52;2.60;67.70
70068;DHT22;57425;51.616;6.680;2022-11-20T06:53:18;2.60;67.70
70068;DHT22;57425;51.616;6.680;2022-11-20T06:55:44;2.70;67.90
70068;DHT22;57425;51.616;6.680;2022-11-20T06:58:11;2.60;67.70
70068;DHT22;57425;51.616;6.680;2022-11-20T07:00:37;2.60;67.70
70068;DHT22;57425;51.616;6.680;2022-11-20T07:03:03;2.60;67.60
70068;DHT22;57425;51.616;6.680;2022-11-20T07:05:29;2.60;67.60
70068;DHT22;57425;51.616;6.680;2022-11-20T07:07:58;2.60;67.70
70068;DHT22;57425;51.616;6.680;2022-11-20T07:10:24;2.60;67.60
70068;DHT22;57425;51.616;6.680;2022-11-20T07:12:51;2.60;67.60
70068;DHT22;57425;51.616;6.680;2022-11-20T07:15:17;2.60;67.50
70068;DHT22;57425;51.616;6.680;2022-11-20T07:17:43;2.60;67.50
70068;DHT22;57425;51.616;6.680;2022-11-20T07:20:09;2.60;67.50
70068;DHT22;57425;51.616;6.680;2022-11-20T07:22:35;2.60;67.40
70068;DHT22;57425;51.616;6.680;2022-11-20T07:25:02;2.60;67.30
70068;DHT22;57425;51.616;6.680;2022-11-20T07:27:27;2.60;67.30
70068;DHT22;57425;51.616;6.680;2022-11-20T07:29:53;2.60;67.30
70068;DHT22;57425;51.616;6.680;2022-11-20T07:32:19;2.60;67.80
70068;DHT22;57425;51.616;6.680;2022-11-20T07:34:45;2.60;67.30
70068;DHT22;57425;51.616;6.680;2022-11-20T07:37:10;2.60;67.30
70068;DHT22;57425;51.616;6.680;2022-11-20T07:39:36;2.60;67.30
70068;DHT22;57425;51.616;6.680;2022-11-20T07:42:01;2.60;67.40
70068;DHT22;57425;51.616;6.680;2022-11-20T07:44:28;2.50;67.30
70068;DHT22;57425;51.616;6.680;2022-11-20T07:46:54;2.50;67.30
70068;DHT22;57425;51.616;6.680;2022-11-20T07:49:19;2.50;67.30
70068;DHT22;57425;51.616;6.680;2022-11-20T07:51:45;2.50;67.40
70068;DHT22;57425;51.616;6.680;2022-11-20T07:54:10;2.50;67.40
70068;DHT22;57425;51.616;6.680;2022-11-20T07:56:36;2.50;67.40
70068;DHT22;57425;51.616;6.680;2022-11-20T07:59:03;2.50;67.40
70068;DHT22;57425;51.616;6.680;2022-11-20T08:01:28;2.50;67.40
70068;DHT22;57425;51.616;6.680;2022-11-20T08:03:54;2.50;67.50
70068;DHT22;57425;51.616;6.680;2022-11-20T08:06:20;2.50;67.40
70068;DHT22;57425;51.616;6.680;2022-11-20T08:08:45;2.50;67.40
70068;DHT22;57425;51.616;6.680;2022-11-20T08:11:11;2.50;67.50
70068;DHT22;57425;51.616;6.680;2022-11-20T08:13:55;2.50;67.50
70068;DHT22;57425;51.616;6.680;2022-11-20T08:16:43;2.50;67.60
70068;DHT22;57425;51.616;6.680;2022-11-20T08:19:09;2.40;67.70
70068;DHT22;57425;51.616;6.680;2022-11-20T08:21:35;2.50;67.80
70068;DHT22;57425;51.616;6.680;2022-11-20T08:24:00;2.40;67.80
70068;DHT22;57425;51.616;6.680;2022-11-20T08:26:26;2.50;68.00
70068;DHT22;57425;51.616;6.680;2022-11-20T08:28:56;2.40;68.00
70068;DHT22;57425;51.616;6.680;2022-11-20T08:31:23;2.50;68.10
70068;DHT22;57425;51.616;6.680;2022-11-20T08:33:50;2.50;68.20
70068;DHT22;57425;51.616;6.680;2022-11-20T08:36:17;2.50;68.30
70068;DHT22;57425;51.616;6.680;2022-11-20T08:38:47;2.40;68.30
70068;DHT22;57425;51.616;6.680;2022-11-20T08:41:13;2.50;68.40
70068;DHT22;57425;51.616;6.680;2022-11-20T08:44:03;2.40;68.50
70068;DHT22;57425;51.616;6.680;2022-11-20T08:46:40;2.50;68.60
70068;DHT22;57425;51.616;6.680;2022-11-20T08:49:13;2.40;68.70
70068;DHT22;57425;51.616;6.680;2022-11-20T08:51:41;2.40;68.80
70068;DHT22;57425;51.616;6.680;2022-11-20T08:54:07;2.40;68.90
70068;DHT22;57425;51.616;6.680;2022-11-20T08:56:33;2.40;69.00
70068;DHT22;57425;51.616;6.680;2022-11-20T08:58:59;2.40;69.00
70068;DHT22;57425;51.616;6.680;2022-11-20T09:01:25;2.40;69.10
70068;DHT22;57425;51.616;6.680;2022-11-20T09:03:51;2.40;69.20
70068;DHT22;57425;51.616;6.680;2022-11-20T09:06:17;2.40;69.30
70068;DHT22;57425;51.616;6.680;2022-11-20T09:08:43;2.40;69.40
70068;DHT22;57425;51.616;6.680;2022-11-20T09:11:09;2.40;69.50
70068;DHT22;57425;51.616;6.680;2022-11-20T09:13:36;2.40;69.60
70068;DHT22;57425;51.616;6.680;2022-11-20T09:16:07;2.40;69.60
70068;DHT22;57425;51.616;6.680;2022-11-20T09:18:34;2.40;69.70
70068;DHT22;57425;51.616;6.680;2022-11-20T09:21:04;2.50;69.90
70068;DHT22;57425;51.616;6.680;2022-11-20T09:23:35;2.40;69.90
70068;DHT22;57425;51.616;6.680;2022-11-20T09:26:04;2.50;70.10
70068;DHT22;57425;51.616;6.680;2022-11-20T09:28:31;2.50;70.10
70068;DHT22;57425;51.616;6.680;2022-11-20T09:30:57;2.50;70.10
70068;DHT22;57425;51.616;6.680;2022-11-20T09:33:23;2.50;70.20
70068;DHT22;57425;51.616;6.680;2022-11-20T09:35:50;2.50;70.30
70068;DHT22;57425;51.616;6.680;2022-11-20T09:38:15;2.50;70.30
70068;DHT22;57425;51.616;6.680;2022-11-20T09:40:54;2.50;70.40
70068;DHT22;57425;51.616;6.680;2022-11-20T09:46:40;2.60;70.60
70068;DHT22;57425;51.616;6.680;2022-11-20T09:52:31;2.60;70.70
70068;DHT22;57425;51.616;6.680;2022-11-20T09:54:52;2.60;70.80
70068;DHT22;57425;51.616;6.680;2022-11-20T09:57:22;2.60;70.80
70068;DHT22;57425;51.616;6.680;2022-11-20T09:59:59;2.60;70.90
70068;DHT22;57425;51.616;6.680;2022-11-20T10:02:30;2.60;71.00
70068;DHT22;57425;51.616;6.680;2022-11-20T10:05:15;2.60;71.10
70068;DHT22;57425;51.616;6.680;2022-11-20T10:18:58;2.70;71.60
70068;DHT22;57425;51.616;6.680;2022-11-20T10:27:07;2.70;71.70
70068;DHT22;57425;51.616;6.680;2022-11-20T10:29:42;2.70;71.80
70068;DHT22;57425;51.616;6.680;2022-11-20T10:32:11;2.70;71.90
70068;DHT22;57425;51.616;6.680;2022-11-20T10:35:01;2.70;71.80
70068;DHT22;57425;51.616;6.680;2022-11-20T10:37:31;2.70;72.10
70068;DHT22;57425;51.616;6.680;2022-11-20T10:40:25;2.70;72.00
70068;DHT22;57425;51.616;6.680;2022-11-20T10:43:14;2.70;72.10
70068;DHT22;57425;51.616;6.680;2022-11-20T10:48:25;2.70;72.30
70068;DHT22;57425;51.616;6.680;2022-11-20T10:56:24;2.70;72.40
70068;DHT22;57425;51.616;6.680;2022-11-20T11:01:44;2.80;72.70
70068;DHT22;57425;51.616;6.680;2022-11-20T11:04:33;2.80;72.60
70068;DHT22;57425;51.616;6.680;2022-11-20T11:07:39;2.80;72.80
70068;DHT22;57425;51.616;6.680;2022-11-20T11:10:25;2.80;72.80
70068;DHT22;57425;51.616;6.680;2022-11-20T11:12:52;2.80;72.90
70068;DHT22;57425;51.616;6.680;2022-11-20T11:15:38;2.80;72.80
70068;DHT22;57425;51.616;6.680;2022-11-20T11:18:07;2.80;73.00
70068;DHT22;57425;51.616;6.680;2022-11-20T11:20:34;2.80;73.50
70068;DHT22;57425;51.616;6.680;2022-11-20T11:23:00;2.90;73.10
70068;DHT22;57425;51.616;6.680;2022-11-20T11:25:34;2.90;73.10
70068;DHT22;57425;51.616;6.680;2022-11-20T11:28:17;2.90;73.30
70068;DHT22;57425;51.616;6.680;2022-11-20T11:30:45;2.90;73.30
70068;DHT22;57425;51.616;6.680;2022-11-20T11:33:18;2.90;73.30
70068;DHT22;57425;51.616;6.680;2022-11-20T11:35:47;2.90;73.30
70068;DHT22;57425;51.616;6.680;2022-11-20T11:38:17;3.00;73.40
70068;DHT22;57425;51.616;6.680;2022-11-20T11:40:44;3.00;73.50
70068;DHT22;57425;51.616;6.680;2022-11-20T11:43:24;3.00;73.50
70068;DHT22;57425;51.616;6.680;2022-11-20T11:46:34;3.00;73.60
70068;DHT22;57425;51.616;6.680;2022-11-20T11:54:55;3.10;73.70
70068;DHT22;57425;51.616;6.680;2022-11-20T11:57:29;3.10;73.80
70068;DHT22;57425;51.616;6.680;2022-11-20T12:00:01;3.10;73.80
70068;DHT22;57425;51.616;6.680;2022-11-20T12:05:34;3.10;73.80
70068;DHT22;57425;51.616;6.680;2022-11-20T12:08:18;3.10;73.90
70068;DHT22;57425;51.616;6.680;2022-11-20T12:10:53;3.10;73.90
70068;DHT22;57425;51.616;6.680;2022-11-20T12:16:02;3.20;74.00
70068;DHT22;57425;51.616;6.680;2022-11-20T12:18:28;3.20;74.00
70068;DHT22;57425;51.616;6.680;2022-11-20T12:24:07;3.20;74.20
70068;DHT22;57425;51.616;6.680;2022-11-20T12:26:45;3.20;74.30
70068;DHT22;57425;51.616;6.680;2022-11-20T12:39:35;3.30;74.60
70068;DHT22;57425;51.616;6.680;2022-11-20T12:42:14;3.30;74.50
70068;DHT22;57425;51.616;6.680;2022-11-20T12:53:32;3.40;74.60
70068;DHT22;57425;51.616;6.680;2022-11-20T12:58:52;3.40;74.60
70068;DHT22;57425;51.616;6.680;2022-11-20T13:01:46;3.40;74.60
70068;DHT22;57425;51.616;6.680;2022-11-20T13:04:39;3.40;74.70
70068;DHT22;57425;51.616;6.680;2022-11-20T13:07:12;3.50;74.80
70068;DHT22;57425;51.616;6.680;2022-11-20T13:09:48;3.40;74.60
70068;DHT22;57425;51.616;6.680;2022-11-20T13:15:33;3.50;74.70
70068;DHT22;57425;51.616;6.680;2022-11-20T13:18:04;3.50;74.80
70068;DHT22;57425;51.616;6.680;2022-11-20T13:20:31;3.50;74.70
70068;DHT22;57425;51.616;6.680;2022-11-20T13:22:58;3.50;74.70
70068;DHT22;57425;51.616;6.680;2022-11-20T13:25:28;3.50;74.80
70068;DHT22;57425;51.616;6.680;2022-11-20T13:27:56;3.50;74.90
70068;DHT22;57425;51.616;6.680;2022-11-20T13:30:24;3.50;75.00
70068;DHT22;57425;51.616;6.680;2022-11-20T13:38:03;3.60;75.10
70068;DHT22;57425;51.616;6.680;2022-11-20T13:40:29;3.60;75.20
70068;DHT22;57425;51.616;6.680;2022-11-20T13:43:14;3.60;75.20
70068;DHT22;57425;51.616;6.680;2022-11-20T13:45:41;3.60;75.20
70068;DHT22;57425;51.616;6.680;2022-11-20T13:48:21;3.60;75.20
70068;DHT22;57425;51.616;6.680;2022-11-20T13:51:12;3.70;75.40
70068;DHT22;57425;51.616;6.680;2022-11-20T14:02:16;3.70;75.40
70068;DHT22;57425;51.616;6.680;2022-11-20T14:04:48;3.70;75.40
70068;DHT22;57425;51.616;6.680;2022-11-20T14:07:15;3.70;75.40
70068;DHT22;57425;51.616;6.680;2022-11-20T14:09:50;3.70;75.40
70068;DHT22;57425;51.616;6.680;2022-11-20T14:12:19;3.80;75.70
70068;DHT22;57425;51.616;6.680;2022-11-20T14:14:50;3.80;75.60
70068;DHT22;57425;51.616;6.680;2022-11-20T14:19:58;3.80;75.80
70068;DHT22;57425;51.616;6.680;2022-11-20T14:22:26;3.80;75.70
70068;DHT22;57425;51.616;6.680;2022-11-20T14:25:28;3.80;75.80
70068;DHT22;57425;51.616;6.680;2022-11-20T14:27:58;3.80;75.90
70068;DHT22;57425;51.616;6.680;2022-11-20T14:30:50;3.80;75.80
70068;DHT22;57425;51.616;6.680;2022-11-20T14:33:17;3.80;75.90
70068;DHT22;57425;51.616;6.680;2022-11-20T14:35:56;3.80;75.80
70068;DHT22;57425;51.616;6.680;2022-11-20T14:38:27;3.90;76.00
70068;DHT22;57425;51.616;6.680;2022-11-20T14:41:08;3.80;75.90
70068;DHT22;57425;51.616;6.680;2022-11-20T14:43:34;3.90;76.10
70068;DHT22;57425;51.616;6.680;2022-11-20T14:46:06;3.90;76.00
70068;DHT22;57425;51.616;6.680;2022-11-20T14:48:46;3.90;76.10
70068;DHT22;57425;51.616;6.680;2022-11-20T14:51:34;3.90;76.20
70068;DHT22;57425;51.616;6.680;2022-11-20T14:54:16;4.00;76.40
70068;DHT22;57425;51.616;6.680;2022-11-20T14:56:54;3.90;76.30
70068;DHT22;57425;51.616;6.680;2022-11-20T14:59:28;4.00;76.30
70068;DHT22;57425;51.616;6.680;2022-11-20T15:02:00;4.00;76.40
70068;DHT22;57425;51.616;6.680;2022-11-20T15:04:26;4.00;76.30
70068;DHT22;57425;51.616;6.680;2022-11-20T15:06:55;3.90;76.30
70068;DHT22;57425;51.616;6.680;2022-11-20T15:09:21;4.00;76.40
70068;DHT22;57425;51.616;6.680;2022-11-20T15:12:01;4.00;76.40
70068;DHT22;57425;51.616;6.680;2022-11-20T15:14:30;4.00;76.60
70068;DHT22;57425;51.616;6.680;2022-11-20T15:16:56;4.00;76.50
70068;DHT22;57425;51.616;6.680;2022-11-20T15:19:24;4.00;76.60
70068;DHT22;57425;51.616;6.680;2022-11-20T15:21:50;4.00;76.60
70068;DHT22;57425;51.616;6.680;2022-11-20T15:24:16;4.00;76.70
70068;DHT22;57425;51.616;6.680;2022-11-20T15:26:43;4.00;76.60
70068;DHT22;57425;51.616;6.680;2022-11-20T15:29:14;4.00;76.70
70068;DHT22;57425;51.616;6.680;2022-11-20T15:31:40;4.00;76.80
70068;DHT22;57425;51.616;6.680;2022-11-20T15:34:14;4.00;76.80
70068;DHT22;57425;51.616;6.680;2022-11-20T15:36:40;4.10;77.00
70068;DHT22;57425;51.616;6.680;2022-11-20T15:39:07;4.10;76.90
70068;DHT22;57425;51.616;6.680;2022-11-20T15:41:37;4.10;76.90
70068;DHT22;57425;51.616;6.680;2022-11-20T15:44:03;4.10;76.90
70068;DHT22;57425;51.616;6.680;2022-11-20T15:46:32;4.10;76.50
70068;DHT22;57425;51.616;6.680;2022-11-20T15:49:03;4.10;77.00
70068;DHT22;57425;51.616;6.680;2022-11-20T15:51:41;4.10;76.90
70068;DHT22;57425;51.616;6.680;2022-11-20T15:54:16;4.10;76.90
70068;DHT22;57425;51.616;6.680;2022-11-20T15:56:43;4.10;76.90
70068;DHT22;57425;51.616;6.680;2022-11-20T15:59:09;4.10;76.90
70068;DHT22;57425;51.616;6.680;2022-11-20T16:01:35;4.10;77.00
70068;DHT22;57425;51.616;6.680;2022-11-20T16:04:01;4.10;77.00
70068;DHT22;57425;51.616;6.680;2022-11-20T16:06:27;4.10;77.10
70068;DHT22;57425;51.616;6.680;2022-11-20T16:08:53;4.10;77.10
70068;DHT22;57425;51.616;6.680;2022-11-20T16:11:18;4.10;77.10
70068;DHT22;57425;51.616;6.680;2022-11-20T16:13:44;4.20;77.20
70068;DHT22;57425;51.616;6.680;2022-11-20T16:18:55;4.20;77.20
70068;DHT22;57425;51.616;6.680;2022-11-20T16:21:21;4.20;77.30
70068;DHT22;57425;51.616;6.680;2022-11-20T16:23:52;4.20;77.80
70068;DHT22;57425;51.616;6.680;2022-11-20T16:26:18;4.20;77.30
70068;DHT22;57425;51.616;6.680;2022-11-20T16:28:44;4.20;77.40
70068;DHT22;57425;51.616;6.680;2022-11-20T16:31:12;4.20;77.30
70068;DHT22;57425;51.616;6.680;2022-11-20T16:33:38;4.20;77.40
70068;DHT22;57425;51.616;6.680;2022-11-20T16:36:12;4.20;77.40
70068;DHT22;57425;51.616;6.680;2022-11-20T16:38:38;4.30;77.50
70068;DHT22;57425;51.616;6.680;2022-11-20T16:41:04;4.20;77.40
70068;DHT22;57425;51.616;6.680;2022-11-20T16:43:30;4.20;77.40
70068;DHT22;57425;51.616;6.680;2022-11-20T16:45:56;4.30;77.50
70068;DHT22;57425;51.616;6.680;2022-11-20T16:48:22;4.30;77.50
70068;DHT22;57425;51.616;6.680;2022-11-20T16:50:52;4.30;77.50
70068;DHT22;57425;51.616;6.680;2022-11-20T16:53:19;4.30;77.60
70068;DHT22;57425;51.616;6.680;2022-11-20T16:55:46;4.30;77.60
70068;DHT22;57425;51.616;6.680;2022-11-20T16:58:12;4.30;77.70
70068;DHT22;57425;51.616;6.680;2022-11-20T17:00:39;4.30;77.60
70068;DHT22;57425;51.616;6.680;2022-11-20T17:03:06;4.30;77.70
70068;DHT22;57425;51.616;6.680;2022-11-20T17:05:32;4.30;77.70
70068;DHT22;57425;51.616;6.680;2022-11-20T17:07:58;4.30;77.70
70068;DHT22;57425;51.616;6.680;2022-11-20T17:10:24;4.40;77.80
70068;DHT22;57425;51.616;6.680;2022-11-20T17:12:50;4.30;77.80
70068;DHT22;57425;51.616;6.680;2022-11-20T17:15:16;4.30;77.80
70068;DHT22;57425;51.616;6.680;2022-11-20T17:17:41;4.30;77.90
70068;DHT22;57425;51.616;6.680;2022-11-20T17:20:07;4.30;77.90
70068;DHT22;57425;51.616;6.680;2022-11-20T17:22:33;4.30;77.90
70068;DHT22;57425;51.616;6.680;2022-11-20T17:24:59;4.30;77.90
70068;DHT22;57425;51.616;6.680;2022-11-20T17:27:24;4.30;78.00
70068;DHT22;57425;51.616;6.680;2022-11-20T17:29:51;4.30;78.00
70068;DHT22;57425;51.616;6.680;2022-11-20T17:32:19;4.30;78.10
70068;DHT22;57425;51.616;6.680;2022-11-20T17:34:44;4.30;78.20
70068;DHT22;57425;51.616;6.680;2022-11-20T17:37:10;4.30;78.10
70068;DHT22;57425;51.616;6.680;2022-11-20T17:39:36;4.30;78.10
70068;DHT22;57425;51.616;6.680;2022-11-20T17:42:01;4.30;78.20